»·PEaware :: N990CP KAJO-KVCV

N990CP :: KAJO-KVCV

FLIGHT INFORMATION

Flight Status: Arrived
Operator: Privately registered:
United States
More flights under this callsign
Pilot: Anonymous 16342 (16342)
Aircraft: CESSNA 172 SKYHAWK
(C172)
More flights by this aircraft type
Origin: KAJO Corona Mun
United States
Destination: KVCV Socal Logistics
United States
More flights between these airports :: More routes between these airports
Route: +PDZ V442 APLES
File this flight plan on PilotEdge
Remarks: I-11 Attempt | Approx Departure Time = 0225z
Altitude:
(Current/Filed)
5,000ft
Speed:
(Current/Filed)
110kts
Departed: 13-Aug-18 06:30 PM
Arrived: 13-Aug-18 07:42 PM
Distance/Time
Traveled:
43nm/1:11
Distance/Time
To Go:
Arrived

Flight Plot

Page will automatically refresh every two minutes.


Map Options




Map Legend


Flown Route
Filed Route
Departure Airport
Arrival Airport
Navaid (VOR, NDB)
Fix

Horizontal Profiles

Position Reports

Time Latitude Longitude Heading Altitude Ground
Speed
13-Aug-18 18:06 33.896376 -117.597690 270 536ft 0kts
13-Aug-18 18:07 33.896376 -117.597693 270 536ft 0kts
13-Aug-18 18:08 33.896376 -117.597696 269 536ft 0kts
13-Aug-18 18:09 33.896376 -117.597700 269 536ft 0kts
13-Aug-18 18:10 33.896376 -117.597703 269 536ft 0kts
13-Aug-18 18:11 33.896376 -117.597707 269 536ft 0kts
13-Aug-18 18:12 33.896376 -117.597711 269 536ft 0kts
13-Aug-18 18:13 33.896376 -117.597715 269 536ft 0kts
13-Aug-18 18:14 33.896376 -117.597718 269 536ft 0kts
13-Aug-18 18:15 33.896376 -117.597722 269 536ft 0kts
13-Aug-18 18:16 33.897250 -117.597382 101 536ft 11kts
13-Aug-18 18:17 33.897319 -117.597156 316 536ft 0kts
13-Aug-18 18:18 33.897321 -117.597159 316 536ft 0kts
13-Aug-18 18:19 33.897323 -117.597161 316 536ft 0kts
13-Aug-18 18:20 33.897326 -117.597163 316 536ft 0kts
13-Aug-18 18:21 33.897328 -117.597166 316 536ft 0kts
13-Aug-18 18:22 33.897330 -117.597168 316 536ft 0kts
13-Aug-18 18:23 33.897331 -117.597170 316 536ft 0kts
13-Aug-18 18:24 33.897333 -117.597172 316 536ft 0kts
13-Aug-18 18:25 33.897335 -117.597175 316 536ft 0kts
13-Aug-18 18:26 33.897337 -117.597177 316 536ft 0kts
13-Aug-18 18:27 33.897339 -117.597179 316 536ft 0kts
13-Aug-18 18:28 33.897341 -117.597181 316 536ft 0kts
13-Aug-18 18:29 33.897344 -117.597184 316 536ft 0kts
13-Aug-18 18:30 33.897728 -117.598588 271 536ft 27kts
13-Aug-18 18:31 33.900971 -117.613593 342 1183ft 79kts
13-Aug-18 18:32 33.923256 -117.596868 82 1742ft 130kts
13-Aug-18 18:33 33.919869 -117.554312 95 2417ft 135kts
13-Aug-18 18:34 33.930927 -117.515117 40 3069ft 132kts
13-Aug-18 18:35 33.957625 -117.494654 334 3662ft 109kts
13-Aug-18 18:36 33.957609 -117.520575 204 4315ft 98kts
13-Aug-18 18:37 33.931499 -117.520884 162 5031ft 95kts
13-Aug-18 18:38 33.912343 -117.535858 284 5723ft 115kts
13-Aug-18 18:39 33.937030 -117.553259 31 6411ft 118kts
13-Aug-18 18:40 33.954868 -117.521136 53 7148ft 115kts
13-Aug-18 18:41 33.973918 -117.491221 40 7832ft 112kts
13-Aug-18 18:42 33.999109 -117.480974 22 8360ft 87kts
13-Aug-18 18:43 34.025333 -117.465778 27 8909ft 115kts
13-Aug-18 18:44 34.055660 -117.447560 27 8997ft 127kts
13-Aug-18 18:45 34.085405 -117.429685 27 9009ft 115kts
13-Aug-18 18:46 34.117293 -117.410487 27 8985ft 132kts
13-Aug-18 18:47 34.150499 -117.390489 27 8987ft 132kts
13-Aug-18 18:48 34.183754 -117.370444 27 9016ft 128kts
13-Aug-18 18:49 34.215582 -117.351244 27 9023ft 126kts
13-Aug-18 18:50 34.244179 -117.333992 27 9041ft 109kts
13-Aug-18 18:51 34.271112 -117.317724 27 9051ft 107kts
13-Aug-18 18:52 34.298218 -117.301333 27 9019ft 108kts
13-Aug-18 18:53 34.329815 -117.282190 27 8996ft 134kts
13-Aug-18 18:54 34.363565 -117.261751 27 8980ft 131kts
13-Aug-18 18:55 34.397052 -117.241456 27 8988ft 130kts
13-Aug-18 18:56 34.430138 -117.221381 27 9078ft 126kts
13-Aug-18 18:57 34.463099 -117.201364 27 9107ft 131kts
13-Aug-18 18:58 34.489018 -117.185611 27 9125ft 132kts
13-Aug-18 18:59 34.525041 -117.163707 27 9121ft 116kts
13-Aug-18 19:00 34.534463 -117.157967 27 9123ft 126kts
13-Aug-18 19:01 34.561281 -117.147385 9 9115ft 121kts
13-Aug-18 19:02 34.603185 -117.144409 356 9080ft 132kts
13-Aug-18 19:03 34.632637 -117.148529 348 9077ft 125kts
13-Aug-18 19:04 34.666987 -117.160402 337 9028ft 135kts
13-Aug-18 19:05 34.698069 -117.178500 327 8426ft 111kts
13-Aug-18 19:06 34.724769 -117.201347 318 7778ft 123kts
13-Aug-18 19:07 34.749319 -117.230934 307 7083ft 125kts
13-Aug-18 19:08 34.769114 -117.264542 298 6354ft 121kts
13-Aug-18 19:09 34.783639 -117.300542 289 5637ft 107kts
13-Aug-18 19:10 34.792085 -117.332933 280 5147ft 99kts
13-Aug-18 19:11 34.794112 -117.369891 229 5111ft 112kts
13-Aug-18 19:12 34.764112 -117.375061 192 4881ft 112kts
13-Aug-18 19:13 34.732269 -117.377918 187 4571ft 115kts
13-Aug-18 19:14 34.700107 -117.380705 186 4312ft 113kts
13-Aug-18 19:15 34.673109 -117.383078 186 3881ft 90kts
13-Aug-18 19:16 34.648285 -117.385252 186 3373ft 88kts
13-Aug-18 19:17 34.624753 -117.387322 188 3384ft 93kts
13-Aug-18 19:18 34.608133 -117.416097 240 3680ft 113kts
13-Aug-18 19:19 34.603052 -117.448732 283 4364ft 100kts
13-Aug-18 19:20 34.610327 -117.483773 281 5066ft 120kts
13-Aug-18 19:21 34.618285 -117.524560 281 5765ft 126kts
13-Aug-18 19:22 34.625972 -117.564510 281 5999ft 123kts
13-Aug-18 19:23 34.634532 -117.608939 281 5983ft 138kts
13-Aug-18 19:24 34.642239 -117.649052 281 6010ft 115kts
13-Aug-18 19:25 34.649398 -117.686463 281 6013ft 113kts
13-Aug-18 19:26 34.656970 -117.726049 281 6017ft 125kts
13-Aug-18 19:27 34.664509 -117.767063 270 6012ft 124kts
13-Aug-18 19:28 34.641537 -117.766844 102 6026ft 133kts
13-Aug-18 19:29 34.632684 -117.724191 82 5978ft 129kts
13-Aug-18 19:30 34.656701 -117.724286 282 5999ft 114kts
13-Aug-18 19:31 34.664428 -117.765965 275 5998ft 134kts
13-Aug-18 19:32 34.640591 -117.771038 107 6003ft 133kts
13-Aug-18 19:33 34.632924 -117.730625 105 5997ft 114kts
13-Aug-18 19:34 34.634537 -117.693638 98 5749ft 111kts
13-Aug-18 19:35 34.629793 -117.655953 107 5299ft 112kts
13-Aug-18 19:36 34.626611 -117.621741 94 5323ft 100kts
13-Aug-18 19:37 34.624666 -117.582951 95 4959ft 129kts
13-Aug-18 19:38 34.622545 -117.540844 95 4423ft 120kts
13-Aug-18 19:39 34.624960 -117.501935 44 3913ft 119kts
13-Aug-18 19:40 34.637858 -117.466828 72 3780ft 113kts
13-Aug-18 19:41 34.637303 -117.429902 107 3564ft 128kts
13-Aug-18 19:42 34.630455 -117.390638 109 3193ft 107kts
13-Aug-18 19:43 34.612321 -117.386731 182 2854ft 33kts
13-Aug-18 19:44 34.610518 -117.385227 84 2854ft 10kts
13-Aug-18 19:45 34.602419 -117.384124 179 2854ft 29kts
13-Aug-18 19:46 34.594880 -117.383972 152 2854ft 19kts
13-Aug-18 19:47 34.590330 -117.378426 135 2854ft 23kts
13-Aug-18 19:48 34.589269 -117.374172 141 2854ft 12kts
13-Aug-18 19:49 34.589021 -117.373870 133 2854ft 0kts
13-Aug-18 19:50 34.589021 -117.373870 133 2854ft 0kts
13-Aug-18 19:51 34.589021 -117.373870 133 2854ft 0kts

Navigation Log

Ident Type
Flight plan parsing failed, navigation log unavailable